createdAt,value
2022-11-04T00:02:49.986Z,4.28
2022-11-04T00:05:51.607Z,5.35
2022-11-04T00:08:54.301Z,3.33
2022-11-04T00:12:14.826Z,7.05
2022-11-04T00:15:34.834Z,2.22
2022-11-04T00:18:36.456Z,8.30
2022-11-04T00:21:56.442Z,3.90
2022-11-04T00:25:16.456Z,5.35
2022-11-04T00:28:37.488Z,4.15
2022-11-04T00:31:57.686Z,2.15
2022-11-04T00:34:59.225Z,2.53
2022-11-04T00:38:00.768Z,4.43
2022-11-04T00:41:02.334Z,7.03
2022-11-04T00:44:05.013Z,5.72
2022-11-04T00:47:06.549Z,3.95
2022-11-04T00:50:08.327Z,7.00
2022-11-04T00:53:10.181Z,5.38
2022-11-04T00:56:12.116Z,6.03
2022-11-04T00:59:14.649Z,5.35
2022-11-04T01:02:16.495Z,8.60
2022-11-04T01:05:18.241Z,2.53
2022-11-04T01:08:19.808Z,2.90
2022-11-04T01:11:21.389Z,2.78
2022-11-04T01:14:23.084Z,4.68
2022-11-04T01:17:24.686Z,3.30
2022-11-04T01:20:26.246Z,5.30
2022-11-04T01:23:27.848Z,4.65
2022-11-04T01:26:30.439Z,4.28
2022-11-04T01:29:32.078Z,6.00
2022-11-04T01:32:33.662Z,4.05
2022-11-04T01:35:35.289Z,4.38
2022-11-04T01:38:36.919Z,2.00
2022-11-04T01:41:38.885Z,1.55
2022-11-04T01:44:43.214Z,3.35
2022-11-04T01:47:47.720Z,1.45
2022-11-04T01:50:50.195Z,3.13
2022-11-04T01:53:54.088Z,5.88
2022-11-04T01:56:56.093Z,3.78
2022-11-04T01:59:58.568Z,2.75
2022-11-04T02:03:06.424Z,1.42
2022-11-04T02:06:08.681Z,6.45
2022-11-04T02:09:10.681Z,6.47
2022-11-04T02:12:30.818Z,5.05
2022-11-04T02:15:39.058Z,2.28
2022-11-04T02:18:43.380Z,2.70
2022-11-04T02:22:03.400Z,5.57
2022-11-04T02:25:08.560Z,5.70
2022-11-04T02:28:15.913Z,2.45
2022-11-04T02:31:23.562Z,2.17
2022-11-04T02:34:43.617Z,3.03
2022-11-04T02:37:48.304Z,5.20
2022-11-04T02:40:53.195Z,3.88
2022-11-04T02:43:57.699Z,5.72
2022-11-04T02:47:07.804Z,5.32
2022-11-04T02:50:09.416Z,4.18
2022-11-04T02:53:31.174Z,5.07
2022-11-04T02:56:34.216Z,5.57
2022-11-04T02:59:44.865Z,2.20
2022-11-04T03:02:58.351Z,3.42
2022-11-04T03:06:01.262Z,7.88
2022-11-04T03:09:03.909Z,5.32
2022-11-04T03:12:12.396Z,3.20
2022-11-04T03:15:19.064Z,5.65
2022-11-04T03:18:23.433Z,8.48
2022-11-04T03:21:25.898Z,7.57
2022-11-04T03:24:27.802Z,2.95
2022-11-04T03:27:32.317Z,6.40
2022-11-04T03:30:38.519Z,3.55
2022-11-04T03:33:43.450Z,4.30
2022-11-04T03:36:45.036Z,7.38
2022-11-04T03:39:46.897Z,3.33
2022-11-04T03:43:09.294Z,4.10
2022-11-04T03:46:11.343Z,6.80
2022-11-04T03:49:13.567Z,3.05
2022-11-04T03:52:16.625Z,5.32
2022-11-04T03:55:18.220Z,3.35
2022-11-04T03:58:19.815Z,1.27
2022-11-04T04:01:24.569Z,2.95
2022-11-04T04:04:26.210Z,5.70
2022-11-04T04:07:37.482Z,5.85
2022-11-04T04:10:59.021Z,4.45
2022-11-04T04:14:09.932Z,5.60
2022-11-04T04:17:30.141Z,7.00
2022-11-04T04:20:32.772Z,5.10
2022-11-04T04:23:54.795Z,3.90
2022-11-04T04:27:15.574Z,4.97
2022-11-04T04:30:17.282Z,3.97
2022-11-04T04:33:19.464Z,3.10
2022-11-04T04:36:21.225Z,5.35
2022-11-04T04:39:43.813Z,5.78
2022-11-04T04:43:20.313Z,6.45
2022-11-04T04:46:22.024Z,5.72
2022-11-04T04:49:23.590Z,6.80
2022-11-04T04:52:32.047Z,6.75
2022-11-04T04:55:38.903Z,6.15
2022-11-04T04:58:43.227Z,5.82
2022-11-04T05:01:44.954Z,5.15
2022-11-04T05:04:46.670Z,7.53
2022-11-04T05:07:48.260Z,3.58
2022-11-04T05:10:50.861Z,3.38
2022-11-04T05:13:52.453Z,0.93
2022-11-04T05:16:53.967Z,6.82
2022-11-04T05:19:55.719Z,2.05
2022-11-04T05:22:57.398Z,3.30
2022-11-04T05:25:59.601Z,5.60
2022-11-04T05:29:01.238Z,7.20
2022-11-04T05:32:02.934Z,6.43
2022-11-04T05:35:04.678Z,4.50
2022-11-04T05:38:06.704Z,7.25
2022-11-04T05:41:09.443Z,7.82
2022-11-04T05:44:11.241Z,8.63
2022-11-04T05:47:12.807Z,7.95
2022-11-04T05:50:14.475Z,9.43
2022-11-04T05:53:16.145Z,8.40
2022-11-04T05:56:17.925Z,9.65
2022-11-04T05:59:19.471Z,9.60
2022-11-04T06:02:21.311Z,10.75
2022-11-04T06:05:23.360Z,10.90
2022-11-04T06:08:24.911Z,9.45
2022-11-04T06:11:27.234Z,9.57
2022-11-04T06:14:28.847Z,9.05
2022-11-04T06:17:30.381Z,9.95
2022-11-04T06:20:32.114Z,9.63
2022-11-04T06:23:33.793Z,9.38
2022-11-04T06:26:35.449Z,10.05
2022-11-04T06:29:41.210Z,8.73
2022-11-04T06:32:42.790Z,9.47
2022-11-04T06:35:44.324Z,8.93
2022-11-04T06:38:45.906Z,9.73
2022-11-04T06:41:50.529Z,9.38
2022-11-04T06:44:53.397Z,10.98
2022-11-04T06:47:55.023Z,9.68
2022-11-04T06:50:59.778Z,9.15
2022-11-04T06:54:01.316Z,9.43
2022-11-04T06:57:03.679Z,10.63
2022-11-04T07:00:05.718Z,9.15
2022-11-04T07:03:08.464Z,9.77
2022-11-04T07:06:10.689Z,9.73
2022-11-04T07:09:13.826Z,10.80
2022-11-04T07:12:15.614Z,10.07
2022-11-04T07:15:17.175Z,9.43
2022-11-04T07:18:18.751Z,9.57
2022-11-04T07:21:20.406Z,5.65
2022-11-04T07:24:22.013Z,10.55
2022-11-04T07:27:23.600Z,10.02
2022-11-04T07:30:27.755Z,9.68
2022-11-04T07:33:29.654Z,10.35
2022-11-04T07:36:31.299Z,9.88
2022-11-04T07:39:32.932Z,9.82
2022-11-04T07:42:34.558Z,10.73
2022-11-04T07:45:41.613Z,10.57
2022-11-04T07:48:43.322Z,10.50
2022-11-04T07:51:44.963Z,9.43
2022-11-04T07:54:46.743Z,10.15
2022-11-04T07:57:48.587Z,10.32
2022-11-04T08:00:50.223Z,8.60
2022-11-04T08:03:52.135Z,9.55
2022-11-04T08:06:53.820Z,11.32
2022-11-04T08:09:55.437Z,10.70
2022-11-04T08:12:57.257Z,11.45
2022-11-04T08:16:03.126Z,10.77
2022-11-04T08:19:04.705Z,10.90
2022-11-04T08:22:06.431Z,10.02
2022-11-04T08:25:08.284Z,10.05
2022-11-04T08:28:13.150Z,9.15
2022-11-04T08:31:18.741Z,7.32
2022-11-04T08:34:20.700Z,6.60
2022-11-04T08:37:22.267Z,8.25
2022-11-04T08:40:24.717Z,6.18
2022-11-04T08:43:26.781Z,6.10
2022-11-04T08:46:29.341Z,6.25
2022-11-04T08:49:30.903Z,6.15
2022-11-04T08:52:32.480Z,6.38
2022-11-04T08:55:34.090Z,5.35
2022-11-04T08:58:35.672Z,5.80
2022-11-04T09:01:37.576Z,4.70
2022-11-04T09:04:39.226Z,4.22
2022-11-04T09:07:41.338Z,4.32
2022-11-04T09:10:46.912Z,3.67
2022-11-04T09:13:48.549Z,2.17
2022-11-04T09:16:50.047Z,2.70
2022-11-04T09:19:51.649Z,2.90
2022-11-04T09:22:54.304Z,3.17
2022-11-04T09:25:57.258Z,2.13
2022-11-04T09:28:59.443Z,2.80
2022-11-04T09:32:01.455Z,3.25
2022-11-04T09:35:03.069Z,3.08
2022-11-04T09:38:04.677Z,2.75
2022-11-04T09:41:29.685Z,2.78
2022-11-04T09:45:14.851Z,2.35
2022-11-04T09:48:08.953Z,2.25
2022-11-04T09:51:26.145Z,2.30
2022-11-04T09:54:45.840Z,2.67
2022-11-04T09:57:54.165Z,4.07
2022-11-04T10:01:04.721Z,3.70
2022-11-04T10:04:22.922Z,2.88
2022-11-04T10:07:27.597Z,3.35
2022-11-04T10:10:29.285Z,2.10
2022-11-04T10:13:36.714Z,3.50
2022-11-04T10:16:57.238Z,2.55
2022-11-04T10:20:19.195Z,3.15
2022-11-04T10:23:22.625Z,3.60
2022-11-04T10:26:30.322Z,3.47
2022-11-04T10:29:38.015Z,4.20
2022-11-04T10:32:47.265Z,3.47
2022-11-04T10:35:51.860Z,4.43
2022-11-04T10:38:57.439Z,4.53
2022-11-04T10:41:59.380Z,3.27
2022-11-04T10:45:01.487Z,4.72
2022-11-04T10:48:09.814Z,5.20
2022-11-04T10:51:12.269Z,4.07
2022-11-04T10:54:13.863Z,4.90
2022-11-04T10:57:26.453Z,5.57
2022-11-04T11:00:39.302Z,5.28
2022-11-04T11:03:40.993Z,4.03
2022-11-04T11:06:42.668Z,5.47
2022-11-04T11:09:54.737Z,4.93
2022-11-04T11:13:02.238Z,4.85
2022-11-04T11:16:04.899Z,5.25
2022-11-04T11:19:12.630Z,6.30
2022-11-04T11:22:33.064Z,5.18
2022-11-04T11:25:35.290Z,5.65
2022-11-04T11:28:38.385Z,5.57
2022-11-04T11:31:40.366Z,5.78
2022-11-04T11:34:45.610Z,5.47
2022-11-04T11:37:47.682Z,4.95
2022-11-04T11:41:18.703Z,4.80
2022-11-04T11:44:25.520Z,4.20
2022-11-04T11:47:30.073Z,3.85
2022-11-04T11:50:34.410Z,0.73
2022-11-04T11:53:38.341Z,4.43
2022-11-04T11:57:07.396Z,2.53
2022-11-04T12:10:56.142Z,1.05
2022-11-04T12:14:00.254Z,0.82
2022-11-04T12:17:12.634Z,1.35
2022-11-04T12:20:23.116Z,1.40
2022-11-04T12:23:29.312Z,1.15
2022-11-04T12:26:57.580Z,1.40
2022-11-04T12:30:08.561Z,1.30
2022-11-04T12:33:21.322Z,0.90
2022-11-04T12:36:31.278Z,0.70
2022-11-04T12:39:40.398Z,1.42
2022-11-04T12:42:41.968Z,1.55
2022-11-04T12:45:49.388Z,1.70
2022-11-04T12:49:21.190Z,0.68
2022-11-04T12:52:22.777Z,1.00
2022-11-04T12:55:38.286Z,0.70
2022-11-04T12:58:48.918Z,1.65
2022-11-04T13:01:52.784Z,1.30
2022-11-04T13:05:03.590Z,1.40
2022-11-04T13:08:09.835Z,1.00
2022-11-04T13:11:23.754Z,1.63
2022-11-04T13:14:30.306Z,0.32
2022-11-04T13:20:36.420Z,1.23
2022-11-04T13:23:50.282Z,1.30
2022-11-04T13:26:52.209Z,0.77
2022-11-04T13:30:13.694Z,1.08
2022-11-04T13:33:26.044Z,1.15
2022-11-04T13:36:40.890Z,0.43
2022-11-04T13:39:47.973Z,0.70
2022-11-04T13:42:49.526Z,0.60
2022-11-04T13:45:55.267Z,0.60
2022-11-04T13:49:03.148Z,0.67
2022-11-04T13:52:09.010Z,0.80
2022-11-04T13:55:21.564Z,0.75
2022-11-04T13:58:27.128Z,1.05
2022-11-04T14:01:30.492Z,1.40
2022-11-04T14:04:32.215Z,2.60
2022-11-04T14:08:03.089Z,0.75
2022-11-04T14:11:10.244Z,1.67
2022-11-04T14:14:17.294Z,0.77
2022-11-04T14:17:34.320Z,1.25
2022-11-04T14:20:56.030Z,0.38
2022-11-04T14:24:01.740Z,0.50
2022-11-04T14:27:04.997Z,0.60
2022-11-04T14:30:08.068Z,0.60
2022-11-04T14:33:19.060Z,0.30
2022-11-04T14:36:20.577Z,0.47
2022-11-04T14:39:27.889Z,0.00
2022-11-04T14:42:48.090Z,0.70
2022-11-04T14:45:49.742Z,0.32
2022-11-04T14:48:52.617Z,0.15
2022-11-04T14:51:54.372Z,0.10
2022-11-04T14:55:13.165Z,0.47
2022-11-04T14:58:20.950Z,0.20
2022-11-04T15:01:27.443Z,0.40
2022-11-04T15:04:32.716Z,0.70
2022-11-04T15:07:38.877Z,0.60
2022-11-04T15:10:40.513Z,0.50
2022-11-04T15:13:49.588Z,0.25
2022-11-04T15:16:52.845Z,0.10
2022-11-04T15:19:56.083Z,0.15
2022-11-04T15:22:58.860Z,0.08
2022-11-04T15:26:00.732Z,0.10
2022-11-04T15:29:08.238Z,0.50
2022-11-04T15:32:16.887Z,0.10
2022-11-04T15:35:18.601Z,0.17
2022-11-04T15:38:20.567Z,0.00
2022-11-04T15:41:41.322Z,0.10
2022-11-04T15:44:51.191Z,0.38
2022-11-04T15:48:11.598Z,0.65
2022-11-04T15:51:13.147Z,0.30
2022-11-04T15:54:23.082Z,0.32
2022-11-04T15:57:26.500Z,1.08
2022-11-04T16:00:28.960Z,0.38
2022-11-04T16:03:30.773Z,0.57
2022-11-04T16:06:36.929Z,0.45
2022-11-04T16:09:49.805Z,0.75
2022-11-04T16:13:20.397Z,0.40
2022-11-04T16:16:24.624Z,0.25
2022-11-04T16:19:28.901Z,0.38
2022-11-04T16:22:37.346Z,0.40
2022-11-04T16:25:38.930Z,1.88
2022-11-04T16:28:40.879Z,0.45
2022-11-04T16:31:43.339Z,1.30
2022-11-04T16:34:45.889Z,0.32
2022-11-04T16:37:47.871Z,0.00
2022-11-04T16:40:49.878Z,0.25
2022-11-04T16:43:51.585Z,0.17
2022-11-04T16:46:54.391Z,0.10
2022-11-04T16:50:00.164Z,0.10
2022-11-04T16:53:02.474Z,0.17
2022-11-04T16:56:04.120Z,0.25
2022-11-04T16:59:05.723Z,0.20
2022-11-04T17:02:23.748Z,0.10
2022-11-04T17:05:25.581Z,0.05
2022-11-04T17:08:27.219Z,0.60
2022-11-04T17:11:30.306Z,0.05
2022-11-04T17:14:31.997Z,0.13
2022-11-04T17:17:33.694Z,0.68
2022-11-04T17:20:35.430Z,0.25
2022-11-04T17:23:36.976Z,0.30
2022-11-04T17:26:38.639Z,0.10
2022-11-04T17:29:42.762Z,0.43
2022-11-04T17:32:44.915Z,0.35
2022-11-04T17:35:49.428Z,0.10
2022-11-04T17:38:51.104Z,0.20
2022-11-04T17:42:11.044Z,1.67
2022-11-04T17:45:12.737Z,1.25
2022-11-04T17:48:15.628Z,0.57
2022-11-04T17:51:17.313Z,0.60
2022-11-04T17:54:19.666Z,0.70
2022-11-04T17:57:21.238Z,0.45
2022-11-04T18:00:26.140Z,0.38
2022-11-04T18:03:27.701Z,0.80
2022-11-04T18:06:33.458Z,0.57
2022-11-04T18:09:36.351Z,0.30
2022-11-04T18:12:41.256Z,0.20
2022-11-04T18:15:42.912Z,0.20
2022-11-04T18:18:44.557Z,0.30
2022-11-04T18:21:46.321Z,0.20
2022-11-04T18:24:47.997Z,0.30
2022-11-04T18:27:49.767Z,0.10
2022-11-04T18:30:51.394Z,0.22
2022-11-04T18:33:53.021Z,0.50
2022-11-04T18:36:56.143Z,0.22
2022-11-04T18:39:57.760Z,0.52
2022-11-04T18:43:05.954Z,1.48
2022-11-04T18:46:11.605Z,0.50
2022-11-04T18:49:14.214Z,0.68
2022-11-04T18:52:15.825Z,0.77
2022-11-04T18:55:17.414Z,2.97
2022-11-04T18:58:19.288Z,0.00
2022-11-04T19:01:24.045Z,1.10
2022-11-04T19:04:25.693Z,0.50
2022-11-04T19:07:27.284Z,0.10
2022-11-04T19:10:29.033Z,0.25
2022-11-04T19:13:30.653Z,0.17
2022-11-04T19:16:32.660Z,0.30
2022-11-04T19:19:34.263Z,0.00
2022-11-04T19:22:35.865Z,0.20
2022-11-04T19:25:41.424Z,0.13
2022-11-04T19:28:48.068Z,0.77
2022-11-04T19:31:50.523Z,0.30
2022-11-04T19:34:52.250Z,0.03
2022-11-04T19:37:53.959Z,0.40
2022-11-04T19:40:56.031Z,0.40
2022-11-04T19:43:57.682Z,0.47
2022-11-04T19:46:59.321Z,0.20
2022-11-04T19:50:00.968Z,0.30
2022-11-04T19:53:02.607Z,0.00
2022-11-04T19:56:04.589Z,0.08
2022-11-04T19:59:07.212Z,0.20
2022-11-04T20:02:10.161Z,0.30
2022-11-04T20:05:11.859Z,0.10
2022-11-04T20:08:13.829Z,0.17
2022-11-04T20:11:16.192Z,0.28
2022-11-04T20:14:17.887Z,0.10
2022-11-04T20:17:19.484Z,0.08
2022-11-04T20:20:21.055Z,0.10
2022-11-04T20:23:22.665Z,0.00
2022-11-04T20:26:24.390Z,0.00
2022-11-04T20:29:26.052Z,0.20
2022-11-04T20:32:27.678Z,0.17
2022-11-04T20:35:29.465Z,0.10
2022-11-04T20:38:31.057Z,0.20
2022-11-04T20:41:33.278Z,0.22
2022-11-04T20:44:34.893Z,0.10
2022-11-04T20:47:37.017Z,0.00
2022-11-04T20:50:38.596Z,0.00
2022-11-04T20:53:40.428Z,0.03
2022-11-04T20:56:42.688Z,0.00
2022-11-04T20:59:44.280Z,0.20
2022-11-04T21:02:45.849Z,0.08
2022-11-04T21:05:47.498Z,0.00
2022-11-04T21:08:51.657Z,0.15
2022-11-04T21:11:53.228Z,0.00
2022-11-04T21:14:54.730Z,0.13
2022-11-04T21:17:56.308Z,0.30
2022-11-04T21:20:58.326Z,0.00
2022-11-04T21:24:00.868Z,0.00
2022-11-04T21:27:03.315Z,0.20
2022-11-04T21:30:06.369Z,0.00
2022-11-04T21:33:08.309Z,0.00
2022-11-04T21:36:11.930Z,0.17
2022-11-04T21:39:13.555Z,0.00
2022-11-04T21:42:15.117Z,0.22
2022-11-04T21:45:16.909Z,0.00
2022-11-04T21:48:18.523Z,0.10
2022-11-04T21:51:21.379Z,0.20
2022-11-04T21:54:23.046Z,0.20
2022-11-04T21:57:25.268Z,0.13
2022-11-04T22:00:26.961Z,0.08
2022-11-04T22:03:28.700Z,0.30
2022-11-04T22:06:34.842Z,0.20
2022-11-04T22:09:37.160Z,0.00
2022-11-04T22:12:38.713Z,0.00
2022-11-04T22:15:58.635Z,0.08
2022-11-04T22:19:01.243Z,0.00
2022-11-04T22:22:02.941Z,0.00
2022-11-04T22:25:04.719Z,0.22
2022-11-04T22:28:06.350Z,1.10
2022-11-04T22:31:12.394Z,0.45
2022-11-04T22:34:13.954Z,0.30
2022-11-04T22:37:15.513Z,0.10
2022-11-04T22:40:17.289Z,0.20
2022-11-04T22:43:18.852Z,0.10
2022-11-04T22:46:22.159Z,0.00
2022-11-04T22:49:23.773Z,0.40
2022-11-04T22:52:25.363Z,0.13
2022-11-04T22:55:26.954Z,0.05
2022-11-04T22:58:29.318Z,0.13
2022-11-04T23:01:31.818Z,0.15
2022-11-04T23:04:33.558Z,0.00
2022-11-04T23:07:35.142Z,0.20
2022-11-04T23:10:55.292Z,0.10
2022-11-04T23:14:20.562Z,0.00
2022-11-04T23:17:41.874Z,0.22
2022-11-04T23:20:43.416Z,0.00
2022-11-04T23:24:03.562Z,0.10
2022-11-04T23:27:05.137Z,0.20
2022-11-04T23:30:25.817Z,0.57
2022-11-04T23:33:45.797Z,0.10
2022-11-04T23:37:05.934Z,0.40
2022-11-04T23:40:08.119Z,0.22
2022-11-04T23:43:10.012Z,0.20
2022-11-04T23:46:30.625Z,0.15
2022-11-04T23:49:50.910Z,0.30
2022-11-04T23:53:11.450Z,0.10
2022-11-04T23:56:32.149Z,0.10
2022-11-04T23:59:52.392Z,0.40
